Terminal Aerodrome Forecast
Issued by NWS

Home | Current Version | Previous Version | Text Only | Print | Product List | Glossary Off
Versions: 1 2 3 4 5 6 7 8 9 10 11 12 13 14 15 16 17 18 19 20 21 22 23 24 25

000
FTUS43 KGRB 211700 RRA
TAFATW
TAF
KATW 211743Z 2118/2218 21009KT P6SM BKN120
     FM220000 19010KT P6SM FEW020 BKN120 WS015/21040KT
     FM220300 19011KT P6SM BKN020 OVC120 WS015/22045KT
     FM220600 21011KT P6SM SCT009 OVC020 WS015/23040KT
      TEMPO 2206/2210 4SM -FZDZ BR BKN009
     FM221000 21009KT 5SM -FZRA BR OVC007 WS015/24035KT
     FM221500 21009KT 5SM -DZ BR OVC009=

USA.gov is the U.S. government's official web portal to all federal, state and local government web resources and services.